Latest Coastal Weather Observations for Albany Airport

IDW60701

Issued at 11:32 pm WST Friday 30 January 2015 (issued every 10 minutes, with the page automatically refreshed every 10 minutes)

About coastal observations | Map of coastal stations | Coastal observations for WA | Marine services | Other Formats
Station Details ID: 009999 Name: ALBANY AIRPORT Lat: -34.94 Lon: 117.82 Height: 68.4 m
Data from the previous 72 hours. | See also: Recent months at Albany Airport
Date/Time
WST
Temp

°C
Wind Pressure Rain
since 9am
mm
Weather Cloud Vis
km
Sea
Height
m
Swell
Dir
 
Speed
knots
Gust
knots
hPa Trend Height
m
Period
s
Dir
30/11:30pm 18.8 E 16 21 1020.1 - 0.0 - Cloudy 10 - - - -
30/11:00pm 18.8 E 16 24 1020.2 - 0.0 - Cloudy 10 - - - -
30/10:30pm 19.1 E 16 23 1020.1 - 0.0 - Cloudy 10 - - - -
30/10:00pm 19.0 E 14 20 1020.2 - 0.0 - Cloudy 10 - - - -
30/09:30pm 19.1 E 14 18 1020.3 - 0.0 - Cloudy 10 - - - -
30/09:00pm 19.1 E 16 21 1020.2 - 0.0 - Cloudy 10 - - - -
30/08:30pm 19.0 E 17 23 1020.1 - 0.0 - Partly cloudy 10 - - - -
30/08:00pm 19.1 E 17 23 1019.8 - 0.0 - Cloudy 10 - - - -
30/07:30pm 19.4 E 16 21 1019.6 - 0.0 - Cloudy 10 - - - -
30/07:00pm 19.5 E 15 21 1019.4 - 0.0 - Cloudy 10 - - - -
30/06:30pm 19.6 E 18 23 1019.3 - 0.0 - Cloudy 10 - - - -
30/06:00pm 20.5 E 17 23 1018.9 - 0.0 - Cloudy 10 - - - -
30/05:30pm 21.2 E 18 23 1018.4 - 0.0 - Partly cloudy 10 - - - -
30/05:00pm 21.7 E 17 24 1018.2 - 0.0 - Partly cloudy 10 - - - -
30/04:30pm 22.6 E 19 24 1018.0 - 0.0 - Mostly clear 10 - - - -
30/04:00pm 22.8 E 19 25 1017.9 - 0.0 - Mostly clear 10 - - - -
30/03:30pm 23.5 ESE 18 24 1017.9 - 0.0 - Mostly clear 10 - - - -
30/03:00pm 23.5 E 18 25 1017.8 R 0.0 Haze Partly cloudy 25 - - - -
30/02:00pm 24.6 E 16 21 1017.8 - 0.0 - Mostly clear 10 - - - -
30/01:30pm 24.7 E 18 23 1017.8 - 0.0 - Mostly clear 10 - - - -
30/01:00pm 25.1 E 16 24 1018.1 - 0.0 - Mostly clear 10 - - - -
30/12:30pm 25.0 E 16 22 1018.2 - 0.0 - Mostly clear 10 - - - -
30/12:00pm 24.8 E 16 21 1018.4 R 0.0 Haze Mostly clear 20 - - - -
30/11:30am 24.7 E 15 20 1018.7 - 0.0 - Partly cloudy 10 - - - -
30/11:00am 24.1 ESE 17 22 1018.8 - 0.0 - Partly cloudy 10 - - - -
30/10:30am 23.8 E 13 19 1018.9 - 0.0 - Partly cloudy 10 - - - -
30/10:00am 23.5 ESE 16 21 1019.1 - 0.0 - Partly cloudy 10 - - - -
30/09:30am 22.3 E 14 18 1019.2 - 0.0 - Mostly cloudy 10 - - - -
30/09:00am 21.9 ESE 14 19 1019.1 R 0.0 Fine Mostly cloudy 30 - - - -
30/08:30am 21.4 E 14 20 1019.0 - 0.0 - Mostly cloudy 10 - - - -
30/08:00am 20.5 E 15 20 1018.8 - 0.0 - Mostly cloudy 10 - - - -
30/07:30am 20.7 E 12 17 1018.4 - 0.0 - Mostly cloudy 10 - - - -
30/06:30am 19.9 ESE 10 14 1017.7 - 0.0 - Mostly cloudy 10 - - - -
30/06:00am 19.8 ESE 9 14 1017.5 R 0.0 Fine Mostly cloudy 20 - - - -
30/05:30am 19.6 E 10 13 1017.1 - 0.0 - Cloudy - - - - -
30/05:00am 19.7 ESE 8 11 1016.9 - 0.0 - Cloudy - - - - -
30/04:51am 19.6 ESE 9 12 1016.8 - 0.0 - Cloudy - - - - -
30/04:30am 19.4 E 9 11 1016.4 - 0.0 - Partly cloudy - - - - -
30/04:00am 19.3 ESE 8 10 1015.7 - 0.0 - Partly cloudy - - - - -
30/03:30am 19.1 ESE 7 10 1015.5 - 0.0 - Partly cloudy - - - - -
30/03:00am 18.7 ESE 8 10 1015.0 - 0.0 - - - - - - -
30/02:51am 18.8 E 9 11 1014.9 - 0.0 - Partly cloudy - - - - -
30/02:30am 19.0 E 8 11 1015.0 - 0.0 - Cloudy - - - - -
30/02:00am 19.1 ESE 7 10 1015.2 - 0.0 - Partly cloudy - - - - -
30/01:41am 19.3 E 9 11 1015.1 - 0.0 - Partly cloudy - - - - -
30/01:30am 19.5 ESE 9 12 1015.2 - 0.0 - Partly cloudy - - - - -
30/01:18am 19.6 ESE 9 13 1015.3 - 0.0 - Partly cloudy - - - - -
30/01:00am 19.5 ESE 10 13 1015.4 - 0.0 - Partly cloudy - - - - -
30/12:30am 19.9 SE 8 11 1015.9 - 0.0 - Cloudy - - - - -
30/12:00am 19.9 SE 5 7 1016.1 - 0.0 - Cloudy - - - - -
 
Date/Time
WST
Temp

°C
Wind Pressure Rain
since 9am
mm
Weather Cloud Vis
km
Sea
Height
m
Swell
Dir
 
Speed
knots
Gust
knots
hPa Trend Height
m
Period
s
Dir
29/11:30pm 19.9 S 8 11 1016.1 - 0.0 - Cloudy - - - - -
29/11:00pm 20.1 SE 8 11 1015.6 - 0.0 - Cloudy - - - - -
29/10:30pm 20.0 SE 8 10 1015.4 - 0.0 - Cloudy - - - - -
29/10:00pm 20.0 SSE 5 7 1015.1 - 0.0 - Cloudy - - - - -
29/09:30pm 19.9 SSE 6 9 1015.2 - 0.0 - Cloudy - - - - -
29/09:00pm 20.0 SE 5 7 1014.9 - 0.0 - Cloudy - - - - -
29/08:30pm 20.1 SSE 7 11 1014.6 - 0.0 - Partly cloudy - - - - -
29/08:00pm 20.1 S 8 11 1014.3 - 0.0 - Partly cloudy - - - - -
29/07:45pm 20.3 S 7 11 1014.2 - 0.0 - Partly cloudy - - - - -
29/07:30pm 20.4 S 7 11 1013.9 - 0.0 - Partly cloudy - - - - -
29/07:00pm 21.2 S 9 12 1013.0 - 0.0 - - 10 - - - -
29/06:30pm 21.8 S 9 13 1012.7 - 0.0 - - 10 - - - -
29/06:00pm 24.2 SSE 9 12 1011.8 - 0.0 - Cloudy 10 - - - -
29/05:30pm 25.1 SSE 9 12 1011.3 - 0.0 - Partly cloudy 10 - - - -
29/05:00pm 26.5 SSE 11 15 1011.0 - 0.0 - Partly cloudy 10 - - - -
29/04:30pm 28.3 SSE 10 13 1010.9 - 0.0 - - 10 - - - -
29/04:00pm 28.7 SE 12 15 1010.9 - 0.0 - - 10 - - - -
29/03:30pm 28.8 SE 14 17 1010.6 - 0.0 - - 10 - - - -
29/03:00pm 31.2 SE 12 15 1010.5 R 0.0 Fine Mostly cloudy 30 - - - -
29/02:30pm 31.4 SE 13 16 1010.5 - 0.0 - - 10 - - - -
29/02:00pm 33.0 SE 11 16 1010.5 - 0.0 - - 10 - - - -
29/01:30pm 32.9 SE 9 13 1010.6 - 0.0 - - 10 - - - -
29/01:00pm 32.6 SE 11 14 1010.8 - 0.0 - - 10 - - - -
29/12:30pm 32.8 SE 10 13 1010.9 - 0.0 - - 10 - - - -
29/12:00pm 32.9 SSE 9 12 1011.0 R 0.0 Fine Mostly clear 30 - - - -
29/11:30am 31.6 ESE 8 13 1011.1 - 0.0 - - 10 - - - -
29/11:00am 31.1 ESE 3 6 1011.3 - 0.0 - - 10 - - - -
29/10:30am 30.1 NNE 5 7 1011.6 - 0.0 - Mostly clear 10 - - - -
29/10:00am 29.1 NNE 4 9 1011.4 - 0.0 - - 10 - - - -
29/09:30am 26.9 E 4 6 1011.3 - 0.0 - - 10 - - - -
29/09:00am 25.7 NE 5 7 1011.3 R 5.6 Fine Partly cloudy 30 - - - -
29/08:30am 23.9 ENE 3 5 1011.3 - 5.6 - - 10 - - - -
29/08:00am 23.9 NNE 6 7 1011.6 - 5.6 - Mostly clear 10 - - - -
29/07:30am 23.0 N 4 6 1011.3 - 5.6 - Mostly clear 10 - - - -
29/07:00am 22.1 CALM 0 3 1011.0 - 5.6 - Mostly clear 10 - - - -
29/06:30am 19.3 CALM 0 0 1010.7 - 5.6 - Mostly clear 10 - - - -
29/06:00am 17.7 S 2 5 1010.1 R 5.6 Distant precip. Mostly clear 30 - - - -
29/05:30am 17.8 S 5 7 1009.6 - 5.6 - - 10 - - - -
29/05:00am 18.6 SW 8 9 1009.3 - 5.6 - - 10 - - - -
29/04:30am 19.4 E 5 6 1008.1 - 5.6 - - 10 - - - -
29/04:00am 19.7 ENE 9 10 1007.6 - 5.6 - - 10 - - - -
29/03:30am 20.5 NE 8 11 1007.7 - 5.6 - - 10 - - - -
29/03:00am 21.1 NE 9 11 1007.7 - 5.6 - - 10 - - - -
29/02:30am 21.8 NE 10 13 1007.7 - 5.6 - Partly cloudy 10 - - - -
29/02:00am 21.6 ENE 9 11 1007.9 - 5.6 - Partly cloudy 10 - - - -
29/01:30am 21.3 NE 8 10 1008.1 - 5.6 - - 10 - - - -
29/01:00am 21.7 NE 9 11 1008.3 - 5.6 - - 10 - - - -
29/12:30am 21.7 NE 9 13 1008.4 - 5.6 - - 10 - - - -
29/12:00am 22.8 NE 10 14 1008.4 - 5.6 - - 10 - - - -
 
Date/Time
WST
Temp

°C
Wind Pressure Rain
since 9am
mm
Weather Cloud Vis
km
Sea
Height
m
Swell
Dir
 
Speed
knots
Gust
knots
hPa Trend Height
m
Period
s
Dir
28/11:30pm 22.9 ENE 13 19 1008.2 - 5.6 - Partly cloudy 10 - - - -
28/11:00pm 22.5 ENE 13 17 1008.7 - 5.6 - - 10 - - - -
28/10:30pm 21.7 ENE 10 12 1009.8 - 5.6 - - 10 - - - -
28/10:00pm 21.3 ENE 13 17 1010.2 - 5.6 - Partly cloudy 10 - - - -
28/09:30pm 22.4 E 9 11 1010.6 - 5.6 - Partly cloudy 10 - - - -
28/09:00pm 22.7 NE 11 15 1011.2 - 5.2 - Cloudy 10 - - - -
28/08:30pm 20.5 E 9 11 1011.7 - 4.4 - Partly cloudy - - - - -
28/08:00pm 20.3 W 6 7 1012.3 - 4.0 - Partly cloudy - - - - -
28/07:30pm 20.9 WNW 10 14 1012.2 - 2.6 - Partly cloudy 10 - - - -
28/07:00pm 21.7 NNW 11 13 1012.0 - 2.0 - Partly cloudy 10 - - - -
28/06:30pm 21.6 NW 11 12 1011.9 - 1.8 - Partly cloudy 9 - - - -
28/06:00pm 22.7 WNW 13 - 1010.7 - - - Cloudy - - - - -
28/05:59pm 22.9 WNW 13 16 1010.5 - 1.0 - Partly cloudy 10 - - - -
28/05:30pm 23.8 SE 10 13 1008.4 - 1.0 - Partly cloudy 10 - - - -
28/05:00pm 23.7 SE 11 15 1007.8 - 1.0 Thunder Partly cloudy 10 - - - -
28/04:32pm 22.8 SSE 10 14 1007.9 - 1.0 Thunder Partly cloudy 10 - - - -
28/04:00pm 24.1 SW 11 15 1009.2 - 0.0 Thunderstorm Partly cloudy 10 - - - -
28/03:37pm 26.0 W 17 21 1008.6 - 0.0 Thunderstorm Partly cloudy 10 - - - -
28/03:30pm 29.9 ESE 7 11 1007.4 - 0.0 Thunderstorm Partly cloudy 10 - - - -
28/03:00pm 32.6 E 16 21 1006.9 F 0.0 Thunderstorm Partly cloudy 30 - - - -
28/02:30pm 32.3 E 17 22 1006.8 - 0.0 - Mostly clear 10 - - - -
28/02:00pm 33.7 E 15 20 1007.1 - 0.0 Showers Mostly clear 10 - - - -
28/01:30pm 32.6 E 16 19 1007.4 - 0.0 - - 10 - - - -
28/01:00pm 34.2 ESE 16 20 1007.6 - 0.0 - - 10 - - - -
28/12:30pm 36.5 ENE 7 14 1007.8 - 0.0 - - 10 - - - -
28/12:00pm 37.4 N 8 14 1008.3 F 0.0 Fine Partly cloudy 30 - - - -
28/11:30am 37.2 NE 11 14 1008.8 - 0.0 - - 10 - - - -
28/11:00am 35.1 NNE 10 15 1009.3 - 0.0 - - 10 - - - -
28/10:30am 32.4 E 11 14 1009.7 - 0.0 - - 10 - - - -
28/10:00am 30.9 ENE 10 15 1009.9 - 0.0 - - 10 - - - -
28/09:30am 29.2 ENE 11 14 1010.2 - 0.0 - - 10 - - - -
28/09:00am 27.1 ENE 11 14 1010.5 F 0.0 Fine Mostly clear 30 - - - -
28/08:30am 24.7 ENE 9 12 1010.6 - 0.0 - Partly cloudy 10 - - - -
28/08:00am 23.0 E 10 13 1010.8 - 0.0 - Partly cloudy 10 - - - -
28/07:30am 21.4 E 9 11 1011.0 - 0.0 - - 10 - - - -
28/07:00am 19.7 ENE 9 11 1011.0 - 0.0 - - 10 - - - -
28/06:30am 18.7 E 7 9 1010.9 - 0.0 - - 10 - - - -
28/06:00am 17.6 E 7 10 1010.8 F 0.0 Fine Mostly clear 30 - - - -
28/05:30am 17.6 E 7 9 1010.7 - 0.0 - - - - - - -
28/05:00am 17.4 E 7 9 1010.5 - 0.0 - - - - - - -
28/04:30am 17.3 E 6 8 1010.3 - 0.0 - - - - - - -
28/04:00am 17.4 ENE 7 9 1010.0 - 0.0 - - - - - - -
28/03:30am 17.5 ENE 9 10 1010.1 - 0.0 - - - - - - -
28/03:00am 17.8 E 9 11 1010.2 - 0.0 - - - - - - -
28/02:30am 18.0 E 8 11 1010.3 - 0.0 - - - - - - -
28/02:00am 18.1 E 9 11 1010.4 - 0.0 - - - - - - -
28/01:30am 18.3 E 9 11 1010.6 - 0.0 - - - - - - -
28/01:00am 18.2 E 9 11 1010.7 - 0.0 - - - - - - -
28/12:30am 18.5 E 11 13 1010.8 - 0.0 - - - - - - -
28/12:00am 18.3 E 8 11 1011.1 - 0.0 - - - - - - -

Other Formats:

Comma delimited format used in spreadsheet applications
http://www.bom.gov.au/fwo/IDW60701/IDW60701.94802.axf

JavaScript Object Notation format (JSON) in row-major order
http://www.bom.gov.au/fwo/IDW60701/IDW60701.94802.json